createdAt,value
2022-11-21T00:02:17.005Z,69.49
2022-11-21T00:04:49.017Z,69.79
2022-11-21T00:07:20.993Z,69.52
2022-11-21T00:09:52.919Z,69.42
2022-11-21T00:12:24.880Z,69.33
2022-11-21T00:14:56.792Z,69.40
2022-11-21T00:17:28.989Z,69.58
2022-11-21T00:20:00.873Z,69.86
2022-11-21T00:22:33.962Z,69.71
2022-11-21T00:25:07.191Z,69.68
2022-11-21T00:27:39.527Z,69.76
2022-11-21T00:30:14.694Z,69.98
2022-11-21T00:32:45.098Z,69.78
2022-11-21T00:35:17.030Z,69.91
2022-11-21T00:37:50.939Z,70.01
2022-11-21T00:40:22.852Z,69.89
2022-11-21T00:42:54.790Z,69.69
2022-11-21T00:45:26.678Z,69.72
2022-11-21T00:47:58.641Z,69.51
2022-11-21T00:50:30.603Z,69.62
2022-11-21T00:53:02.950Z,69.76
2022-11-21T00:55:37.141Z,69.38
2022-11-21T00:58:09.134Z,69.42
2022-11-21T01:00:41.191Z,69.44
2022-11-21T01:03:13.186Z,69.23
2022-11-21T01:05:45.175Z,69.41
2022-11-21T01:08:17.194Z,69.25
2022-11-21T01:10:49.127Z,69.35
2022-11-21T01:13:21.218Z,69.41
2022-11-21T01:15:53.180Z,69.64
2022-11-21T01:18:25.119Z,69.65
2022-11-21T01:21:00.000Z,69.50
2022-11-21T01:23:32.297Z,69.78
2022-11-21T01:26:09.485Z,69.68
2022-11-21T01:28:41.705Z,69.79
2022-11-21T01:31:17.480Z,69.65
2022-11-21T01:33:49.910Z,69.64
2022-11-21T01:36:24.555Z,69.54
2022-11-21T01:38:58.395Z,69.37
2022-11-21T01:41:33.801Z,69.35
2022-11-21T01:44:11.948Z,69.36
2022-11-21T01:46:43.852Z,69.41
2022-11-21T01:49:19.195Z,69.27
2022-11-21T01:51:55.256Z,69.22
2022-11-21T01:54:30.804Z,69.12
2022-11-21T01:57:07.963Z,68.98
2022-11-21T01:59:43.947Z,68.97
2022-11-21T02:02:19.134Z,69.15
2022-11-21T02:04:51.763Z,69.12
2022-11-21T02:07:25.764Z,69.29
2022-11-21T02:10:00.325Z,69.32
2022-11-21T02:12:39.379Z,69.12
2022-11-21T02:15:13.400Z,69.53
2022-11-21T02:17:45.585Z,69.32
2022-11-21T02:20:19.569Z,69.34
2022-11-21T02:22:59.853Z,69.33
2022-11-21T02:25:35.121Z,69.39
2022-11-21T02:28:10.385Z,69.33
2022-11-21T02:30:44.007Z,69.27
2022-11-21T02:33:16.156Z,69.22
2022-11-21T02:35:56.412Z,69.29
2022-11-21T02:38:32.931Z,69.25
2022-11-21T02:41:15.956Z,69.20
2022-11-21T02:43:52.380Z,69.33
2022-11-21T02:46:24.311Z,69.10
2022-11-21T02:48:57.963Z,69.07
2022-11-21T02:51:29.876Z,68.98
2022-11-21T02:54:01.793Z,68.88
2022-11-21T02:56:34.092Z,68.91
2022-11-21T02:59:06.357Z,68.81
2022-11-21T03:01:38.318Z,68.72
2022-11-21T03:04:10.281Z,68.59
2022-11-21T03:06:42.272Z,68.61
2022-11-21T03:09:14.236Z,68.71
2022-11-21T03:11:46.250Z,68.84
2022-11-21T03:14:18.495Z,69.12
2022-11-21T03:16:50.381Z,69.06
2022-11-21T03:19:22.293Z,69.16
2022-11-21T03:21:54.281Z,69.23
2022-11-21T03:24:26.595Z,69.11
2022-11-21T03:26:59.057Z,69.10
2022-11-21T03:29:30.940Z,68.91
2022-11-21T03:32:02.953Z,68.88
2022-11-21T03:34:34.893Z,69.00
2022-11-21T03:37:07.164Z,69.12
2022-11-21T03:39:39.075Z,69.07
2022-11-21T03:42:10.967Z,69.00
2022-11-21T03:44:43.056Z,68.92
2022-11-21T03:47:14.964Z,68.97
2022-11-21T03:49:46.857Z,69.06
2022-11-21T03:52:19.108Z,69.00
2022-11-21T03:54:51.112Z,68.90
2022-11-21T03:57:23.075Z,68.83
2022-11-21T03:59:54.987Z,68.30
2022-11-21T04:02:27.024Z,68.23
2022-11-21T04:04:58.939Z,68.60
2022-11-21T04:07:31.143Z,68.46
2022-11-21T04:10:03.071Z,68.62
2022-11-21T04:12:35.012Z,68.86
2022-11-21T04:15:13.151Z,68.59
2022-11-21T04:17:46.052Z,68.83
2022-11-21T04:20:19.049Z,68.93
2022-11-21T04:22:50.928Z,69.13
2022-11-21T04:25:22.813Z,68.99
2022-11-21T04:27:56.979Z,68.78
2022-11-21T04:30:29.818Z,68.95
2022-11-21T04:33:01.779Z,68.96
2022-11-21T04:35:33.713Z,68.79
2022-11-21T04:38:05.728Z,68.83
2022-11-21T04:40:37.774Z,68.81
2022-11-21T04:43:10.039Z,68.72
2022-11-21T04:45:41.978Z,68.57
2022-11-21T04:48:14.016Z,68.74
2022-11-21T04:50:46.211Z,68.67
2022-11-21T04:53:18.131Z,68.76
2022-11-21T04:55:50.087Z,68.65
2022-11-21T04:58:22.127Z,68.61
2022-11-21T05:00:54.095Z,68.54
2022-11-21T05:03:26.106Z,68.57
2022-11-21T05:05:57.940Z,68.27
2022-11-21T05:08:29.934Z,68.28
2022-11-21T05:11:19.813Z,68.54
2022-11-21T05:13:53.593Z,68.41
2022-11-21T05:16:25.530Z,68.43
2022-11-21T05:18:57.418Z,68.51
2022-11-21T05:21:29.302Z,68.65
2022-11-21T05:24:01.346Z,68.87
2022-11-21T05:26:33.231Z,68.67
2022-11-21T05:29:05.245Z,68.72
2022-11-21T05:31:37.132Z,68.85
2022-11-21T05:34:09.303Z,68.81
2022-11-21T05:36:41.520Z,68.77
2022-11-21T05:39:13.432Z,68.75
2022-11-21T05:41:45.678Z,68.78
2022-11-21T05:44:17.692Z,68.76
2022-11-21T05:46:49.937Z,68.89
2022-11-21T05:49:21.977Z,68.71
2022-11-21T05:51:53.947Z,68.78
2022-11-21T05:54:26.119Z,68.67
2022-11-21T05:56:58.642Z,68.60
2022-11-21T05:59:30.779Z,68.70
2022-11-21T06:02:20.406Z,68.57
2022-11-21T06:04:52.371Z,68.65
2022-11-21T06:07:24.299Z,68.55
2022-11-21T06:09:56.271Z,68.51
2022-11-21T06:12:28.160Z,68.36
2022-11-21T06:15:00.148Z,68.61
2022-11-21T06:17:31.981Z,68.54
2022-11-21T06:20:03.949Z,68.45
2022-11-21T06:22:35.934Z,68.33
2022-11-21T06:25:08.942Z,68.35
2022-11-21T06:27:40.886Z,68.33
2022-11-21T06:30:16.526Z,68.26
2022-11-21T06:32:52.717Z,68.39
2022-11-21T06:35:24.813Z,68.57
2022-11-21T06:37:57.318Z,68.53
2022-11-21T06:40:29.329Z,68.60
2022-11-21T06:43:01.498Z,68.67
2022-11-21T06:45:33.407Z,68.64
2022-11-21T06:48:05.885Z,68.87
2022-11-21T06:50:38.822Z,68.55
2022-11-21T06:53:10.735Z,68.54
2022-11-21T06:55:42.648Z,68.64
2022-11-21T06:58:14.584Z,68.57
2022-11-21T07:00:48.855Z,68.54
2022-11-21T07:03:21.352Z,68.69
2022-11-21T07:05:58.603Z,68.69
2022-11-21T07:08:31.346Z,68.80
2022-11-21T07:13:59.128Z,68.50
2022-11-21T07:16:32.557Z,68.57
2022-11-21T07:19:04.564Z,68.55
2022-11-21T07:21:36.558Z,68.67
2022-11-21T07:24:09.752Z,68.57
2022-11-21T07:26:41.674Z,68.46
2022-11-21T07:29:13.600Z,68.34
2022-11-21T07:31:45.512Z,68.24
2022-11-21T07:34:17.400Z,68.50
2022-11-21T07:36:49.364Z,68.44
2022-11-21T07:39:21.971Z,68.50
2022-11-21T07:41:54.186Z,68.31
2022-11-21T07:44:26.125Z,68.67
2022-11-21T07:46:58.445Z,68.94
2022-11-21T07:49:30.673Z,68.70
2022-11-21T07:52:02.962Z,68.96
2022-11-21T07:54:34.925Z,68.92
2022-11-21T07:57:06.967Z,68.85
2022-11-21T07:59:38.850Z,68.99
2022-11-21T08:02:19.814Z,68.97
2022-11-21T08:04:52.302Z,68.83
2022-11-21T08:07:25.821Z,68.65
2022-11-21T08:09:57.869Z,68.46
2022-11-21T08:12:30.162Z,68.72
2022-11-21T08:15:02.076Z,68.44
2022-11-21T08:17:34.476Z,68.67
2022-11-21T08:20:09.895Z,68.65
2022-11-21T08:22:43.137Z,68.62
2022-11-21T08:25:15.025Z,68.45
2022-11-21T08:27:46.987Z,68.41
2022-11-21T08:30:19.234Z,68.32
2022-11-21T08:32:51.200Z,68.49
2022-11-21T08:35:23.160Z,68.63
2022-11-21T08:37:59.660Z,68.71
2022-11-21T08:40:33.459Z,68.92
2022-11-21T08:43:07.371Z,68.94
2022-11-21T08:45:40.535Z,69.15
2022-11-21T08:48:15.623Z,69.20
2022-11-21T08:50:47.664Z,69.28
2022-11-21T08:53:19.600Z,69.13
2022-11-21T08:55:51.566Z,69.05
2022-11-21T08:58:23.610Z,69.08
2022-11-21T09:00:55.517Z,69.18
2022-11-21T09:03:31.075Z,69.05
2022-11-21T09:06:03.540Z,68.99
2022-11-21T09:08:35.528Z,69.09
2022-11-21T09:11:09.157Z,69.03
2022-11-21T09:13:41.148Z,68.94
2022-11-21T09:16:32.540Z,68.86
2022-11-21T09:19:04.687Z,68.86
2022-11-21T09:21:36.646Z,68.68
2022-11-21T09:24:09.164Z,68.76
2022-11-21T09:26:41.164Z,68.80
2022-11-21T09:29:15.202Z,68.95
2022-11-21T09:31:47.522Z,68.91
2022-11-21T09:34:20.174Z,69.08
2022-11-21T09:36:53.289Z,69.12
2022-11-21T09:39:25.342Z,69.00
2022-11-21T09:42:10.631Z,69.12
2022-11-21T09:44:59.438Z,69.19
2022-11-21T09:47:33.297Z,69.38
2022-11-21T09:50:08.521Z,69.18
2022-11-21T09:52:47.101Z,69.16
2022-11-21T09:55:26.033Z,69.06
2022-11-21T09:57:59.300Z,69.18
2022-11-21T10:00:31.739Z,69.26
2022-11-21T10:03:04.642Z,69.10
2022-11-21T10:05:43.295Z,69.06
2022-11-21T10:08:23.310Z,69.14
2022-11-21T10:11:09.170Z,69.06
2022-11-21T10:13:57.599Z,68.87
2022-11-21T10:16:42.217Z,68.76
2022-11-21T10:19:43.515Z,68.84
2022-11-21T10:22:32.544Z,68.96
2022-11-21T10:25:13.805Z,69.12
2022-11-21T10:27:53.035Z,69.32
2022-11-21T10:30:25.411Z,69.17
2022-11-21T10:33:00.445Z,69.18
2022-11-21T10:35:36.254Z,69.24
2022-11-21T10:38:20.758Z,69.41
2022-11-21T10:40:56.227Z,69.06
2022-11-21T10:43:53.454Z,69.20
2022-11-21T10:46:25.728Z,69.24
2022-11-21T10:49:00.781Z,69.22
2022-11-21T10:51:43.688Z,69.16
2022-11-21T10:54:34.414Z,69.15
2022-11-21T10:57:14.260Z,69.19
2022-11-21T11:00:01.207Z,69.06
2022-11-21T11:02:33.092Z,69.16
2022-11-21T11:05:28.342Z,68.83
2022-11-21T11:08:06.532Z,68.87
2022-11-21T11:10:40.570Z,68.96
2022-11-21T11:13:51.949Z,69.04
2022-11-21T11:16:25.562Z,69.07
2022-11-21T11:19:03.359Z,69.12
2022-11-21T11:21:45.715Z,69.14
2022-11-21T11:24:29.356Z,69.33
2022-11-21T11:27:03.547Z,69.23
2022-11-21T11:29:50.610Z,69.32
2022-11-21T11:32:23.803Z,69.38
2022-11-21T11:35:01.329Z,69.29
2022-11-21T11:37:41.016Z,69.37
2022-11-21T11:40:27.161Z,69.33
2022-11-21T11:43:49.482Z,69.26
2022-11-21T11:46:56.696Z,69.38
2022-11-21T11:49:59.281Z,69.23
2022-11-21T11:52:34.677Z,69.41
2022-11-21T11:55:15.671Z,69.22
2022-11-21T11:57:49.428Z,69.15
2022-11-21T12:00:31.992Z,69.20
2022-11-21T12:03:09.921Z,69.09
2022-11-21T12:05:55.372Z,69.07
2022-11-21T12:08:43.862Z,69.30
2022-11-21T12:11:52.497Z,69.54
2022-11-21T12:14:57.665Z,69.43
2022-11-21T12:17:35.207Z,69.59
2022-11-21T12:20:17.924Z,69.67
2022-11-21T12:22:53.830Z,69.57
2022-11-21T12:25:30.170Z,69.59
2022-11-21T12:28:03.566Z,69.62
2022-11-21T12:30:58.007Z,69.59
2022-11-21T12:33:32.020Z,69.52
2022-11-21T12:36:18.923Z,69.62
2022-11-21T12:39:36.413Z,69.55
2022-11-21T12:42:34.131Z,69.33
2022-11-21T12:45:24.616Z,69.39
2022-11-21T12:48:30.950Z,69.42
2022-11-21T12:51:53.676Z,69.43
2022-11-21T12:54:56.591Z,69.45
2022-11-21T12:57:41.783Z,69.79
2022-11-21T13:00:22.894Z,69.69
2022-11-21T13:03:24.505Z,69.69
2022-11-21T13:05:59.309Z,69.80
2022-11-21T13:08:33.165Z,69.84
2022-11-21T13:11:29.341Z,69.89
2022-11-21T13:14:09.886Z,69.74
2022-11-21T13:16:48.241Z,69.70
2022-11-21T13:19:25.862Z,69.78
2022-11-21T13:21:58.502Z,69.58
2022-11-21T13:24:58.447Z,69.47
2022-11-21T13:27:38.179Z,69.55
2022-11-21T13:30:33.500Z,69.65
2022-11-21T13:33:25.417Z,69.70
2022-11-21T13:36:00.697Z,69.74
2022-11-21T13:38:33.200Z,69.75
2022-11-21T13:41:22.699Z,69.92
2022-11-21T13:44:38.745Z,69.91
2022-11-21T13:47:32.904Z,70.03
2022-11-21T13:50:10.530Z,70.13
2022-11-21T13:52:50.784Z,70.02
2022-11-21T13:55:42.713Z,70.09
2022-11-21T13:58:29.712Z,69.84
2022-11-21T14:01:19.336Z,69.99
2022-11-21T14:04:27.447Z,70.02
2022-11-21T14:07:23.093Z,69.59
2022-11-21T14:09:56.843Z,69.74
2022-11-21T14:12:35.362Z,69.71
2022-11-21T14:15:23.118Z,69.70
2022-11-21T14:17:57.770Z,69.76
2022-11-21T14:20:32.483Z,69.71
2022-11-21T14:23:06.486Z,70.00
2022-11-21T14:25:48.098Z,70.08
2022-11-21T14:28:25.466Z,70.08
2022-11-21T14:31:02.198Z,70.21
2022-11-21T14:33:36.521Z,70.14
2022-11-21T14:36:13.285Z,70.11
2022-11-21T14:38:53.835Z,70.25
2022-11-21T14:41:36.128Z,70.12
2022-11-21T14:44:16.643Z,70.19
2022-11-21T14:46:49.532Z,70.07
2022-11-21T14:49:30.358Z,69.78
2022-11-21T14:52:13.704Z,69.75
2022-11-21T14:55:29.069Z,69.92
2022-11-21T14:57:45.844Z,69.78
2022-11-21T15:00:58.109Z,69.97
2022-11-21T15:03:22.018Z,70.07
2022-11-21T15:06:05.332Z,70.19
2022-11-21T15:11:39.750Z,70.35
2022-11-21T15:14:23.486Z,70.34
2022-11-21T15:16:57.702Z,70.53
2022-11-21T15:19:32.638Z,70.30
2022-11-21T15:22:05.550Z,70.37
2022-11-21T15:24:43.473Z,70.47
2022-11-21T15:27:34.077Z,70.44
2022-11-21T15:30:29.184Z,70.26
2022-11-21T15:33:12.438Z,70.21
2022-11-21T15:35:47.802Z,70.20
2022-11-21T15:38:24.241Z,70.12
2022-11-21T15:41:31.691Z,70.19
2022-11-21T15:44:23.829Z,70.37
2022-11-21T15:46:55.943Z,70.41
2022-11-21T15:49:34.852Z,70.48
2022-11-21T15:52:13.745Z,70.54
2022-11-21T15:54:47.147Z,70.62
2022-11-21T15:59:53.274Z,70.62
2022-11-21T16:02:25.183Z,70.67
2022-11-21T16:04:57.128Z,70.74
2022-11-21T16:07:29.450Z,70.70
2022-11-21T16:10:01.358Z,70.71
2022-11-21T16:12:33.296Z,70.70
2022-11-21T16:15:05.475Z,70.77
2022-11-21T16:17:39.472Z,70.44
2022-11-21T16:20:13.717Z,70.44
2022-11-21T16:22:47.668Z,70.47
2022-11-21T16:25:20.533Z,70.51
2022-11-21T16:27:52.446Z,70.52
2022-11-21T16:30:24.640Z,70.70
2022-11-21T16:32:56.755Z,70.72
2022-11-21T16:35:28.721Z,70.79
2022-11-21T16:38:00.606Z,70.84
2022-11-21T16:40:32.570Z,70.99
2022-11-21T16:43:11.548Z,70.89
2022-11-21T16:45:43.516Z,70.84
2022-11-21T16:48:15.423Z,70.90
2022-11-21T16:50:47.543Z,70.88
2022-11-21T16:53:19.604Z,70.93
2022-11-21T16:56:00.712Z,70.82
2022-11-21T16:58:33.083Z,70.60
2022-11-21T17:01:12.468Z,70.56
2022-11-21T17:03:47.299Z,70.74
2022-11-21T17:06:19.215Z,70.78
2022-11-21T17:08:51.616Z,70.69
2022-11-21T17:11:26.500Z,70.74
2022-11-21T17:14:00.257Z,70.98
2022-11-21T17:16:33.185Z,71.06
2022-11-21T17:19:05.796Z,71.11
2022-11-21T17:21:37.698Z,71.11
2022-11-21T17:24:09.826Z,71.19
2022-11-21T17:26:41.753Z,71.07
2022-11-21T17:29:13.694Z,71.04
2022-11-21T17:31:46.931Z,71.20
2022-11-21T17:34:19.333Z,71.22
2022-11-21T17:36:51.603Z,71.13
2022-11-21T17:39:29.399Z,71.16
2022-11-21T17:42:02.033Z,70.85
2022-11-21T17:44:34.023Z,70.73
2022-11-21T17:47:06.268Z,70.81
2022-11-21T17:49:38.589Z,70.79
2022-11-21T17:52:10.551Z,70.98
2022-11-21T17:54:42.469Z,71.13
2022-11-21T17:57:14.459Z,71.24
2022-11-21T17:59:47.063Z,71.26
2022-11-21T18:02:21.078Z,71.18
2022-11-21T18:04:53.929Z,71.18
2022-11-21T18:07:25.903Z,71.32
2022-11-21T18:10:14.287Z,71.44
2022-11-21T18:12:51.511Z,71.42
2022-11-21T18:15:23.926Z,71.40
2022-11-21T18:17:55.922Z,71.36
2022-11-21T18:20:27.954Z,71.10
2022-11-21T18:22:59.944Z,71.06
2022-11-21T18:25:31.986Z,71.10
2022-11-21T18:28:03.972Z,71.18
2022-11-21T18:30:35.884Z,71.22
2022-11-21T18:33:07.848Z,71.38
2022-11-21T18:35:39.915Z,71.32
2022-11-21T18:38:40.285Z,71.58
2022-11-21T18:41:08.930Z,71.37
2022-11-21T18:43:41.476Z,71.61
2022-11-21T18:46:15.032Z,71.52
2022-11-21T18:49:02.412Z,71.66
2022-11-21T18:51:37.138Z,71.68
2022-11-21T18:54:10.557Z,71.49
2022-11-21T18:56:42.880Z,71.63
2022-11-21T18:59:14.819Z,71.52
2022-11-21T19:01:47.204Z,71.31
2022-11-21T19:04:19.666Z,71.25
2022-11-21T19:06:51.527Z,71.37
2022-11-21T19:09:26.840Z,71.29
2022-11-21T19:12:01.449Z,71.48
2022-11-21T19:14:33.714Z,71.53
2022-11-21T19:17:05.679Z,71.71
2022-11-21T19:19:37.615Z,71.54
2022-11-21T19:22:09.811Z,71.73
2022-11-21T19:24:41.825Z,71.57
2022-11-21T19:27:13.844Z,71.86
2022-11-21T19:29:45.828Z,71.84
2022-11-21T19:32:17.741Z,71.95
2022-11-21T19:34:49.756Z,71.91
2022-11-21T19:37:21.723Z,71.81
2022-11-21T19:39:53.704Z,71.77
2022-11-21T19:42:25.647Z,71.48
2022-11-21T19:44:58.403Z,71.56
2022-11-21T19:47:30.698Z,71.70
2022-11-21T19:50:02.816Z,71.69
2022-11-21T19:52:34.936Z,71.52
2022-11-21T19:55:09.629Z,71.62
2022-11-21T19:57:41.551Z,71.59
2022-11-21T20:00:15.402Z,71.81
2022-11-21T20:02:47.266Z,71.91
2022-11-21T20:05:19.690Z,71.86
2022-11-21T20:07:51.615Z,71.83
2022-11-21T20:10:24.001Z,71.96
2022-11-21T20:12:56.017Z,72.14
2022-11-21T20:15:28.265Z,72.05
2022-11-21T20:18:00.149Z,71.98
2022-11-21T20:20:32.060Z,71.86
2022-11-21T20:23:04.207Z,71.78
2022-11-21T20:25:36.371Z,71.72
2022-11-21T20:28:11.635Z,71.69
2022-11-21T20:30:43.832Z,71.64
2022-11-21T20:33:15.844Z,72.00
2022-11-21T20:35:47.783Z,71.90
2022-11-21T20:38:24.189Z,72.05
2022-11-21T20:40:56.675Z,72.04
2022-11-21T20:43:52.633Z,72.03
2022-11-21T20:46:21.295Z,72.05
2022-11-21T20:48:53.533Z,72.20
2022-11-21T20:54:17.888Z,72.13
2022-11-21T20:56:49.834Z,72.31
2022-11-21T20:59:21.738Z,72.14
2022-11-21T21:01:53.709Z,72.06
2022-11-21T21:04:25.717Z,71.96
2022-11-21T21:06:57.654Z,71.94
2022-11-21T21:09:30.185Z,71.79
2022-11-21T21:12:02.252Z,71.77
2022-11-21T21:14:34.470Z,71.77
2022-11-21T21:17:06.429Z,71.92
2022-11-21T21:19:38.319Z,72.05
2022-11-21T21:22:10.330Z,72.27
2022-11-21T21:24:42.270Z,72.09
2022-11-21T21:27:14.141Z,72.46
2022-11-21T21:29:46.067Z,72.30
2022-11-21T21:32:18.055Z,72.33
2022-11-21T21:34:50.020Z,72.25
2022-11-21T21:37:22.085Z,72.34
2022-11-21T21:39:54.023Z,72.43
2022-11-21T21:42:25.894Z,72.23
2022-11-21T21:44:57.818Z,71.92
2022-11-21T21:47:30.021Z,72.01
2022-11-21T21:50:01.904Z,72.09
2022-11-21T21:52:33.839Z,72.12
2022-11-21T21:55:06.386Z,72.17
2022-11-21T21:57:43.551Z,72.36
2022-11-21T22:00:18.850Z,72.23
2022-11-21T22:02:50.807Z,72.48
2022-11-21T22:05:22.640Z,72.51
2022-11-21T22:07:54.656Z,72.55
2022-11-21T22:10:40.944Z,72.32
2022-11-21T22:13:16.126Z,72.58
2022-11-21T22:15:48.032Z,72.41
2022-11-21T22:18:19.918Z,72.50
2022-11-21T22:20:51.831Z,72.49
2022-11-21T22:23:24.588Z,72.31
2022-11-21T22:25:59.369Z,72.20
2022-11-21T22:28:31.671Z,72.36
2022-11-21T22:31:03.602Z,72.26
2022-11-21T22:33:37.206Z,72.33
2022-11-21T22:36:13.825Z,72.26
2022-11-21T22:38:46.609Z,72.36
2022-11-21T22:41:20.698Z,72.65
2022-11-21T22:43:54.822Z,72.78
2022-11-21T22:46:28.400Z,72.67
2022-11-21T22:49:00.686Z,72.69
2022-11-21T22:51:32.825Z,72.85
2022-11-21T22:54:04.902Z,72.76
2022-11-21T22:56:37.291Z,72.76
2022-11-21T22:59:09.228Z,72.63
2022-11-21T23:01:41.591Z,72.75
2022-11-21T23:04:17.696Z,72.48
2022-11-21T23:06:50.084Z,72.20
2022-11-21T23:09:22.100Z,72.57
2022-11-21T23:11:53.987Z,72.36
2022-11-21T23:14:26.226Z,72.70
2022-11-21T23:16:58.249Z,72.71
2022-11-21T23:19:30.399Z,72.72
2022-11-21T23:22:02.634Z,72.81
2022-11-21T23:24:35.034Z,73.08
2022-11-21T23:27:07.279Z,73.02
2022-11-21T23:29:39.521Z,72.90
2022-11-21T23:32:11.587Z,72.80
2022-11-21T23:34:43.985Z,72.84
2022-11-21T23:37:15.899Z,72.95
2022-11-21T23:39:47.836Z,72.91
2022-11-21T23:42:19.722Z,72.75
2022-11-21T23:44:51.711Z,72.57
2022-11-21T23:47:23.649Z,72.51
2022-11-21T23:49:55.870Z,72.63
2022-11-21T23:52:27.679Z,72.76
2022-11-21T23:54:59.747Z,72.84
2022-11-21T23:57:31.684Z,72.83
